createdAt,value
2023-03-15T00:01:30.866Z,0.70
2023-03-15T00:03:59.470Z,1.00
2023-03-15T00:06:29.160Z,0.80
2023-03-15T00:08:58.960Z,1.00
2023-03-15T00:11:28.176Z,1.10
2023-03-15T00:13:58.655Z,0.80
2023-03-15T00:16:27.909Z,0.90
2023-03-15T00:18:57.227Z,1.20
2023-03-15T00:21:26.198Z,1.00
2023-03-15T00:23:55.029Z,1.20
2023-03-15T00:26:23.772Z,1.20
2023-03-15T00:28:52.976Z,1.10
2023-03-15T00:31:25.588Z,0.80
2023-03-15T00:33:54.962Z,0.80
2023-03-15T00:36:25.132Z,0.90
2023-03-15T00:38:56.565Z,1.30
2023-03-15T00:41:25.421Z,1.20
2023-03-15T00:43:53.965Z,0.90
2023-03-15T00:46:22.673Z,1.00
2023-03-15T00:48:52.738Z,1.00
2023-03-15T00:51:24.398Z,0.70
2023-03-15T00:53:54.927Z,0.70
2023-03-15T00:56:28.218Z,0.70
2023-03-15T00:58:58.600Z,0.50
2023-03-15T01:01:29.887Z,0.60
2023-03-15T01:03:58.450Z,0.90
2023-03-15T01:06:29.453Z,0.90
2023-03-15T01:08:59.414Z,0.90
2023-03-15T01:11:28.608Z,1.20
2023-03-15T01:14:00.677Z,1.20
2023-03-15T01:16:29.880Z,0.70
2023-03-15T01:18:58.842Z,1.10
2023-03-15T01:21:28.152Z,1.20
2023-03-15T01:23:56.860Z,0.60
2023-03-15T01:26:25.851Z,0.80
2023-03-15T01:28:55.464Z,0.70
2023-03-15T01:31:28.569Z,1.20
2023-03-15T01:33:59.173Z,1.00
2023-03-15T01:36:29.911Z,1.10
2023-03-15T01:38:59.108Z,0.80
2023-03-15T01:41:40.398Z,1.30
2023-03-15T01:44:20.361Z,0.70
2023-03-15T01:46:51.209Z,0.70
2023-03-15T01:49:34.535Z,0.90
2023-03-15T01:52:16.116Z,1.00
2023-03-15T01:55:21.339Z,1.00
2023-03-15T01:58:07.135Z,1.10
2023-03-15T02:00:39.124Z,0.90
2023-03-15T02:03:19.469Z,0.80
2023-03-15T02:06:01.562Z,1.00
2023-03-15T02:08:44.442Z,0.80
2023-03-15T02:11:15.606Z,0.70
2023-03-15T02:13:45.306Z,0.90
2023-03-15T02:16:14.367Z,0.90
2023-03-15T02:18:54.177Z,1.50
2023-03-15T02:21:50.204Z,0.90
2023-03-15T02:24:32.612Z,0.90
2023-03-15T02:27:01.840Z,0.90
2023-03-15T02:29:30.974Z,0.80
2023-03-15T02:32:00.786Z,1.20
2023-03-15T02:34:29.838Z,0.80
2023-03-15T02:36:58.816Z,0.70
2023-03-15T02:39:29.450Z,1.10
2023-03-15T02:41:59.666Z,0.70
2023-03-15T02:44:38.854Z,0.50
2023-03-15T02:47:32.286Z,0.90
2023-03-15T02:50:00.859Z,0.80
2023-03-15T02:52:30.155Z,1.30
2023-03-15T02:54:59.354Z,1.00
2023-03-15T02:57:28.500Z,0.80
2023-03-15T02:59:57.706Z,1.00
2023-03-15T03:02:26.862Z,0.70
2023-03-15T03:04:55.740Z,0.90
2023-03-15T03:07:24.737Z,0.80
2023-03-15T03:09:57.926Z,0.70
2023-03-15T03:12:27.946Z,1.10
2023-03-15T03:14:57.028Z,0.70
2023-03-15T03:17:26.037Z,1.20
2023-03-15T03:19:54.867Z,0.60
2023-03-15T03:22:28.219Z,1.20
2023-03-15T03:24:57.020Z,1.00
2023-03-15T03:27:26.002Z,0.80
2023-03-15T03:29:55.256Z,0.70
2023-03-15T03:32:23.921Z,0.70
2023-03-15T03:34:53.905Z,0.70
2023-03-15T03:37:23.443Z,1.50
2023-03-15T03:40:08.070Z,0.90
2023-03-15T03:42:36.961Z,0.60
2023-03-15T03:45:07.446Z,0.70
2023-03-15T03:47:39.774Z,0.90
2023-03-15T03:50:11.551Z,0.70
2023-03-15T03:52:40.207Z,0.80
2023-03-15T03:55:13.959Z,0.80
2023-03-15T03:57:44.004Z,0.80
2023-03-15T04:00:18.247Z,0.80
2023-03-15T04:02:48.409Z,1.00
2023-03-15T04:05:18.182Z,0.70
2023-03-15T04:07:46.765Z,0.80
2023-03-15T04:10:17.295Z,0.80
2023-03-15T04:12:49.469Z,0.50
2023-03-15T04:15:18.150Z,0.80
2023-03-15T04:17:46.939Z,0.90
2023-03-15T04:20:17.804Z,1.20
2023-03-15T04:22:49.880Z,1.00
2023-03-15T04:25:35.734Z,0.60
2023-03-15T04:28:19.800Z,0.80
2023-03-15T04:30:51.925Z,0.90
2023-03-15T04:33:39.383Z,0.90
2023-03-15T04:36:08.564Z,0.60
2023-03-15T04:39:07.665Z,0.70
2023-03-15T04:41:59.205Z,0.70
2023-03-15T04:44:33.931Z,0.60
2023-03-15T04:47:25.523Z,1.00
2023-03-15T04:49:54.040Z,0.60
2023-03-15T04:52:32.059Z,0.80
2023-03-15T04:55:19.579Z,0.60
2023-03-15T04:58:14.276Z,0.60
2023-03-15T05:01:03.428Z,0.70
2023-03-15T05:03:50.767Z,0.80
2023-03-15T05:06:19.559Z,0.70
2023-03-15T05:09:18.250Z,0.70
2023-03-15T05:12:25.533Z,0.90
2023-03-15T05:15:03.946Z,0.80
2023-03-15T05:17:58.866Z,0.50
2023-03-15T05:20:51.308Z,1.00
2023-03-15T05:23:36.370Z,1.00
2023-03-15T05:26:25.148Z,0.80
2023-03-15T05:29:14.872Z,1.30
2023-03-15T05:32:04.878Z,0.50
2023-03-15T05:34:56.723Z,0.70
2023-03-15T05:37:44.044Z,0.40
2023-03-15T05:40:39.022Z,1.00
2023-03-15T05:43:27.805Z,0.60
2023-03-15T05:46:14.374Z,1.00
2023-03-15T05:49:01.373Z,1.80
2023-03-15T05:51:51.753Z,1.30
2023-03-15T05:54:46.943Z,1.20
2023-03-15T05:57:21.554Z,2.50
2023-03-15T06:00:20.286Z,2.20
2023-03-15T06:02:50.568Z,1.30
2023-03-15T06:05:41.680Z,1.10
2023-03-15T06:08:14.777Z,0.80
2023-03-15T06:10:45.505Z,0.90
2023-03-15T06:13:16.638Z,1.20
2023-03-15T06:15:48.193Z,0.90
2023-03-15T06:18:20.170Z,1.10
2023-03-15T06:20:50.403Z,1.20
2023-03-15T06:23:19.894Z,1.20
2023-03-15T06:25:48.992Z,1.20
2023-03-15T06:28:18.092Z,1.90
2023-03-15T06:30:54.061Z,1.60
2023-03-15T06:33:25.805Z,1.80
2023-03-15T06:35:54.743Z,1.40
2023-03-15T06:38:23.486Z,0.90
2023-03-15T06:40:51.994Z,0.60
2023-03-15T06:43:20.653Z,1.20
2023-03-15T06:45:49.481Z,1.40
2023-03-15T06:48:18.438Z,2.10
2023-03-15T06:50:47.997Z,0.70
2023-03-15T06:53:18.063Z,1.10
2023-03-15T06:55:47.776Z,0.60
2023-03-15T06:58:17.183Z,1.40
2023-03-15T07:00:45.765Z,1.20
2023-03-15T07:03:14.760Z,1.50
2023-03-15T07:05:43.344Z,1.00
2023-03-15T07:08:11.926Z,1.30
2023-03-15T07:10:40.413Z,1.00
2023-03-15T07:13:10.373Z,1.30
2023-03-15T07:15:39.454Z,1.40
2023-03-15T07:18:08.410Z,0.90
2023-03-15T07:20:37.861Z,1.10
2023-03-15T07:23:06.481Z,1.40
2023-03-15T07:25:48.226Z,1.40
2023-03-15T07:28:22.565Z,1.10
2023-03-15T07:30:55.734Z,1.50
2023-03-15T07:33:26.680Z,1.20
2023-03-15T07:35:56.453Z,1.10
2023-03-15T07:38:30.956Z,3.30
2023-03-15T07:41:03.957Z,3.00
2023-03-15T07:43:33.371Z,2.00
2023-03-15T07:46:13.156Z,1.90
2023-03-15T07:48:41.912Z,1.90
2023-03-15T07:51:10.816Z,1.20
2023-03-15T07:53:39.387Z,2.20
2023-03-15T07:56:08.074Z,3.10
2023-03-15T07:58:36.688Z,4.00
2023-03-15T08:01:05.855Z,1.80
2023-03-15T08:03:34.442Z,2.10
2023-03-15T08:06:03.025Z,2.90
2023-03-15T08:08:31.918Z,2.40
2023-03-15T08:11:00.603Z,2.40
2023-03-15T08:13:29.190Z,2.70
2023-03-15T08:15:57.831Z,3.20
2023-03-15T08:18:29.344Z,2.60
2023-03-15T08:20:59.446Z,1.90
2023-03-15T08:23:28.037Z,1.90
2023-03-15T08:25:57.239Z,2.20
2023-03-15T08:28:25.850Z,2.10
2023-03-15T08:30:54.401Z,2.40
2023-03-15T08:33:22.987Z,1.80
2023-03-15T08:35:55.224Z,3.70
2023-03-15T08:38:23.845Z,3.50
2023-03-15T08:40:59.427Z,2.10
2023-03-15T08:43:28.407Z,3.20
2023-03-15T08:46:01.036Z,1.80
2023-03-15T08:48:31.830Z,2.90
2023-03-15T08:51:05.881Z,2.50
2023-03-15T08:53:34.802Z,1.90
2023-03-15T08:56:03.288Z,1.70
2023-03-15T08:58:31.983Z,1.50
2023-03-15T09:01:00.452Z,2.90
2023-03-15T09:03:29.165Z,3.00
2023-03-15T09:05:58.348Z,2.00
2023-03-15T09:08:27.435Z,2.00
2023-03-15T09:10:59.394Z,2.10
2023-03-15T09:13:28.801Z,3.50
2023-03-15T09:15:58.200Z,1.90
2023-03-15T09:18:26.794Z,1.40
2023-03-15T09:20:57.426Z,1.30
2023-03-15T09:23:26.116Z,1.60
2023-03-15T09:25:54.796Z,2.60
2023-03-15T09:28:25.685Z,2.90
2023-03-15T09:30:54.914Z,2.20
2023-03-15T09:33:23.527Z,3.00
2023-03-15T09:35:53.648Z,2.60
2023-03-15T09:38:24.378Z,2.90
2023-03-15T09:40:59.124Z,3.30
2023-03-15T09:44:26.269Z,2.30
2023-03-15T09:47:31.613Z,1.60
2023-03-15T09:50:07.946Z,2.00
2023-03-15T09:52:49.366Z,2.20
2023-03-15T09:55:22.667Z,2.50
2023-03-15T09:57:58.223Z,1.40
2023-03-15T10:00:44.924Z,2.20
2023-03-15T10:03:43.530Z,1.20
2023-03-15T10:06:30.531Z,1.30
2023-03-15T10:09:03.342Z,1.40
2023-03-15T10:11:38.856Z,1.60
2023-03-15T10:14:53.110Z,1.70
2023-03-15T10:17:35.524Z,1.70
2023-03-15T10:20:13.290Z,2.10
2023-03-15T10:23:10.068Z,2.60
2023-03-15T10:25:39.685Z,1.50
2023-03-15T10:28:08.155Z,1.90
2023-03-15T10:30:39.914Z,1.60
2023-03-15T10:33:34.667Z,1.60
2023-03-15T10:36:21.567Z,1.20
2023-03-15T10:38:50.820Z,1.70
2023-03-15T10:41:39.781Z,2.10
2023-03-15T10:44:38.488Z,1.40
2023-03-15T10:47:23.654Z,1.30
2023-03-15T10:49:59.677Z,1.40
2023-03-15T10:52:40.924Z,1.40
2023-03-15T10:55:20.386Z,1.60
2023-03-15T10:57:56.542Z,2.00
2023-03-15T11:00:36.956Z,1.60
2023-03-15T11:03:25.926Z,1.10
2023-03-15T11:05:57.856Z,1.50
2023-03-15T11:08:41.418Z,1.40
2023-03-15T11:11:10.517Z,1.40
2023-03-15T11:13:42.057Z,1.30
2023-03-15T11:16:22.510Z,1.00
2023-03-15T11:19:01.989Z,1.70
2023-03-15T11:21:35.826Z,2.50
2023-03-15T11:24:06.995Z,1.80
2023-03-15T11:26:39.219Z,1.60
2023-03-15T11:29:27.198Z,2.20
2023-03-15T11:31:57.181Z,1.50
2023-03-15T11:34:43.343Z,1.70
2023-03-15T11:38:03.102Z,1.70
2023-03-15T11:40:42.666Z,1.60
2023-03-15T11:43:28.794Z,1.80
2023-03-15T11:46:06.392Z,1.50
2023-03-15T11:49:02.910Z,1.10
2023-03-15T11:51:37.186Z,2.20
2023-03-15T11:54:18.916Z,1.60
2023-03-15T11:56:57.570Z,1.90
2023-03-15T11:59:38.877Z,2.10
2023-03-15T12:02:11.018Z,2.10
2023-03-15T12:04:47.625Z,1.90
2023-03-15T12:07:19.207Z,1.90
2023-03-15T12:09:56.548Z,1.80
2023-03-15T12:12:26.071Z,1.80
2023-03-15T12:15:15.443Z,1.40
2023-03-15T12:17:51.027Z,2.00
2023-03-15T12:20:38.140Z,2.40
2023-03-15T12:23:13.415Z,3.10
2023-03-15T12:26:03.879Z,2.50
2023-03-15T12:28:51.590Z,1.90
2023-03-15T12:31:20.785Z,1.60
2023-03-15T12:33:58.726Z,2.40
2023-03-15T12:36:41.598Z,1.60
2023-03-15T12:39:10.131Z,1.80
2023-03-15T12:41:46.855Z,1.30
2023-03-15T12:44:33.757Z,1.30
2023-03-15T12:47:08.180Z,1.30
2023-03-15T12:49:47.458Z,1.30
2023-03-15T12:52:34.478Z,1.40
2023-03-15T12:55:18.829Z,2.20
2023-03-15T12:57:54.201Z,1.10
2023-03-15T13:00:30.613Z,2.20
2023-03-15T13:03:20.029Z,3.20
2023-03-15T13:06:16.863Z,1.40
2023-03-15T13:09:09.619Z,1.70
2023-03-15T13:12:15.530Z,1.80
2023-03-15T13:15:08.427Z,0.90
2023-03-15T13:17:36.920Z,1.20
2023-03-15T13:20:36.633Z,1.60
2023-03-15T13:23:19.163Z,1.10
2023-03-15T13:26:41.483Z,1.50
2023-03-15T13:29:22.202Z,1.20
2023-03-15T13:32:12.546Z,1.20
2023-03-15T13:34:42.774Z,1.50
2023-03-15T13:37:26.034Z,1.10
2023-03-15T13:40:00.755Z,1.20
2023-03-15T13:42:30.340Z,1.10
2023-03-15T13:45:17.452Z,1.30
2023-03-15T13:47:46.778Z,2.00
2023-03-15T13:50:21.044Z,1.40
2023-03-15T13:52:50.172Z,1.70
2023-03-15T13:55:25.243Z,1.40
2023-03-15T13:58:00.897Z,1.50
2023-03-15T14:00:33.982Z,1.60
2023-03-15T14:03:13.454Z,3.00
2023-03-15T14:05:49.858Z,5.60
2023-03-15T14:08:23.453Z,2.50
2023-03-15T14:11:12.368Z,1.70
2023-03-15T14:13:58.603Z,7.20
2023-03-15T14:17:03.747Z,2.00
2023-03-15T14:19:37.023Z,1.20
2023-03-15T14:22:18.655Z,1.30
2023-03-15T14:24:52.063Z,2.30
2023-03-15T14:27:27.096Z,2.20
2023-03-15T14:30:00.850Z,3.30
2023-03-15T14:32:35.657Z,3.60
2023-03-15T14:35:20.505Z,2.20
2023-03-15T14:38:15.486Z,2.40
2023-03-15T14:40:43.970Z,2.80
2023-03-15T14:43:12.662Z,1.80
2023-03-15T14:45:45.243Z,1.10
2023-03-15T14:48:32.208Z,1.00
2023-03-15T14:51:00.731Z,2.00
2023-03-15T14:53:36.156Z,5.70
2023-03-15T14:56:05.165Z,4.10
2023-03-15T14:58:33.753Z,3.50
2023-03-15T15:01:03.281Z,2.40
2023-03-15T15:03:41.851Z,1.80
2023-03-15T15:06:15.280Z,1.50
2023-03-15T15:08:47.899Z,2.80
2023-03-15T15:11:16.440Z,3.70
2023-03-15T15:13:45.173Z,4.00
2023-03-15T15:16:14.054Z,2.50
2023-03-15T15:18:42.948Z,5.40
2023-03-15T15:21:33.815Z,3.90
2023-03-15T15:24:14.899Z,1.50
2023-03-15T15:26:44.408Z,1.40
2023-03-15T15:29:15.205Z,2.30
2023-03-15T15:31:45.813Z,2.20
2023-03-15T15:34:14.454Z,4.50
2023-03-15T15:36:44.548Z,4.00
2023-03-15T15:39:26.434Z,5.50
2023-03-15T15:41:55.462Z,5.00
2023-03-15T15:44:26.231Z,4.30
2023-03-15T15:46:54.993Z,5.20
2023-03-15T15:49:23.471Z,5.50
2023-03-15T15:51:52.382Z,5.50
2023-03-15T15:54:26.467Z,5.40
2023-03-15T15:56:59.188Z,5.30
2023-03-15T15:59:28.144Z,5.70
2023-03-15T16:02:01.215Z,5.20
2023-03-15T16:04:31.459Z,5.00
2023-03-15T16:07:03.652Z,4.70
2023-03-15T16:09:36.342Z,9.30
2023-03-15T16:12:13.857Z,8.80
2023-03-15T16:14:43.206Z,6.90
2023-03-15T16:17:25.440Z,7.20
2023-03-15T16:19:55.139Z,5.60
2023-03-15T16:22:25.271Z,8.20
2023-03-15T16:24:58.249Z,3.60
2023-03-15T16:27:28.774Z,2.90
2023-03-15T16:29:57.453Z,4.60
2023-03-15T16:32:41.383Z,6.20
2023-03-15T16:35:16.727Z,6.00
2023-03-15T16:37:46.329Z,4.90
2023-03-15T16:40:28.610Z,4.80
2023-03-15T16:42:57.949Z,4.20
2023-03-15T16:45:27.879Z,3.80
2023-03-15T16:47:56.870Z,4.20
2023-03-15T16:50:26.216Z,4.30
2023-03-15T16:52:58.282Z,4.90
2023-03-15T16:55:30.805Z,3.80
2023-03-15T16:58:10.350Z,3.40
2023-03-15T17:00:39.341Z,4.80
2023-03-15T17:03:08.018Z,5.50
2023-03-15T17:05:36.662Z,7.20
2023-03-15T17:08:05.752Z,8.60
2023-03-15T17:10:34.400Z,9.70
2023-03-15T17:13:03.694Z,12.30
2023-03-15T17:15:32.386Z,12.10
2023-03-15T17:18:03.122Z,14.70
2023-03-15T17:20:32.020Z,12.60
2023-03-15T17:23:04.921Z,13.60
2023-03-15T17:25:34.724Z,12.90
2023-03-15T17:28:05.146Z,11.50
2023-03-15T17:30:37.671Z,7.40
2023-03-15T17:33:07.269Z,5.80
2023-03-15T17:35:44.388Z,5.40
2023-03-15T17:38:22.554Z,8.00
2023-03-15T17:40:51.546Z,10.60
2023-03-15T17:43:20.400Z,13.00
2023-03-15T17:45:49.196Z,12.80
2023-03-15T17:48:17.876Z,15.40
2023-03-15T17:50:46.767Z,14.20
2023-03-15T17:53:19.246Z,12.10
2023-03-15T17:55:49.326Z,12.90
2023-03-15T17:58:21.811Z,15.10
2023-03-15T18:00:53.886Z,14.80
2023-03-15T18:03:24.003Z,13.50
2023-03-15T18:05:52.722Z,11.20
2023-03-15T18:08:22.598Z,9.90
2023-03-15T18:10:52.011Z,8.60
2023-03-15T18:13:21.996Z,8.20
2023-03-15T18:15:51.770Z,9.30
2023-03-15T18:18:20.858Z,9.20
2023-03-15T18:20:49.857Z,8.80
2023-03-15T18:23:19.564Z,8.70
2023-03-15T18:25:48.579Z,7.80
2023-03-15T18:28:17.145Z,8.00
2023-03-15T18:30:45.825Z,8.70
2023-03-15T18:33:16.018Z,7.70
2023-03-15T18:35:44.760Z,11.40
2023-03-15T18:38:13.627Z,17.70
2023-03-15T18:40:43.383Z,41.50
2023-03-15T18:43:14.657Z,32.20
2023-03-15T18:45:43.562Z,36.30
2023-03-15T18:48:12.230Z,44.60
2023-03-15T18:50:41.414Z,53.90
2023-03-15T18:53:11.910Z,52.30
2023-03-15T18:55:40.376Z,44.50
2023-03-15T18:58:13.192Z,50.50
2023-03-15T19:00:41.992Z,55.30
2023-03-15T19:03:12.015Z,52.40
2023-03-15T19:05:40.647Z,41.00
2023-03-15T19:08:09.463Z,28.40
2023-03-15T19:10:38.022Z,28.00
2023-03-15T19:13:06.712Z,26.20
2023-03-15T19:15:35.294Z,22.00
2023-03-15T19:18:04.183Z,19.30
2023-03-15T19:20:32.871Z,18.90
2023-03-15T19:23:01.865Z,17.30
2023-03-15T19:25:30.880Z,13.90
2023-03-15T19:27:59.444Z,11.00
2023-03-15T19:30:28.406Z,9.50
2023-03-15T19:32:57.157Z,9.40
2023-03-15T19:35:28.582Z,11.30
2023-03-15T19:37:57.473Z,15.70
2023-03-15T19:40:26.266Z,13.70
2023-03-15T19:42:54.957Z,15.90
2023-03-15T19:45:23.643Z,17.80
2023-03-15T19:47:52.215Z,22.10
2023-03-15T19:50:21.005Z,17.90
2023-03-15T19:52:50.309Z,18.20
2023-03-15T19:55:21.144Z,17.30
2023-03-15T19:57:49.939Z,17.30
2023-03-15T20:00:20.327Z,17.60
2023-03-15T20:02:49.673Z,15.50
2023-03-15T20:05:21.505Z,15.80
2023-03-15T20:07:51.908Z,15.60
2023-03-15T20:10:21.217Z,14.60
2023-03-15T20:12:49.944Z,15.10
2023-03-15T20:15:21.408Z,15.50
2023-03-15T20:17:50.082Z,16.00
2023-03-15T20:20:21.066Z,20.10
2023-03-15T20:22:50.144Z,21.60
2023-03-15T20:25:20.782Z,20.30
2023-03-15T20:27:49.557Z,19.20
2023-03-15T20:30:19.687Z,16.70
2023-03-15T20:32:49.101Z,18.20
2023-03-15T20:35:18.272Z,15.40
2023-03-15T20:37:47.888Z,14.50
2023-03-15T20:40:16.765Z,16.60
2023-03-15T20:42:45.971Z,17.80
2023-03-15T20:45:15.981Z,12.30
2023-03-15T20:47:44.574Z,12.90
2023-03-15T20:50:13.591Z,9.90
2023-03-15T20:52:45.627Z,8.30
2023-03-15T20:55:15.658Z,7.40
2023-03-15T20:57:44.858Z,5.80
2023-03-15T21:00:20.278Z,5.60
2023-03-15T21:02:50.338Z,5.10
2023-03-15T21:05:20.214Z,4.40
2023-03-15T21:07:50.420Z,5.60
2023-03-15T21:10:19.680Z,5.70
2023-03-15T21:12:48.432Z,3.90
2023-03-15T21:15:19.234Z,1.90
2023-03-15T21:17:53.622Z,3.20
2023-03-15T21:20:22.992Z,4.50
2023-03-15T21:22:52.940Z,5.60
2023-03-15T21:25:21.689Z,5.00
2023-03-15T21:27:52.010Z,3.50
2023-03-15T21:30:21.442Z,3.30
2023-03-15T21:32:52.712Z,5.00
2023-03-15T21:35:22.594Z,10.30
2023-03-15T21:37:55.456Z,14.80
2023-03-15T21:40:25.422Z,16.90
2023-03-15T21:42:54.896Z,21.20
2023-03-15T21:45:24.471Z,25.50
2023-03-15T21:47:52.973Z,22.10
2023-03-15T21:50:23.963Z,20.70
2023-03-15T21:52:54.788Z,17.20
2023-03-15T21:55:23.911Z,16.50
2023-03-15T21:57:52.630Z,17.40
2023-03-15T22:00:24.511Z,12.70
2023-03-15T22:02:55.786Z,8.60
2023-03-15T22:05:25.248Z,8.00
2023-03-15T22:07:53.860Z,7.50
2023-03-15T22:10:23.850Z,8.00
2023-03-15T22:12:54.674Z,13.70
2023-03-15T22:15:23.707Z,8.80
2023-03-15T22:17:52.780Z,6.00
2023-03-15T22:20:21.358Z,3.60
2023-03-15T22:22:50.666Z,4.70
2023-03-15T22:25:19.553Z,3.60
2023-03-15T22:27:48.343Z,2.20
2023-03-15T22:30:18.370Z,2.50
2023-03-15T22:32:47.910Z,2.90
2023-03-15T22:35:18.437Z,3.10
2023-03-15T22:37:47.702Z,4.80
2023-03-15T22:40:16.595Z,11.00
2023-03-15T22:42:47.498Z,15.10
2023-03-15T22:45:16.334Z,14.20
2023-03-15T22:47:45.215Z,14.80
2023-03-15T22:50:14.521Z,14.50
2023-03-15T22:52:43.935Z,15.00
2023-03-15T22:55:13.153Z,16.90
2023-03-15T22:57:41.938Z,18.50
2023-03-15T23:00:16.420Z,15.00
2023-03-15T23:02:45.963Z,9.30
2023-03-15T23:05:15.860Z,8.60
2023-03-15T23:07:44.441Z,6.20
2023-03-15T23:10:14.263Z,5.20
2023-03-15T23:12:43.765Z,3.80
2023-03-15T23:15:14.683Z,4.20
2023-03-15T23:17:47.491Z,4.60
2023-03-15T23:20:18.705Z,3.10
2023-03-15T23:22:48.765Z,3.50
2023-03-15T23:25:21.396Z,2.50
2023-03-15T23:27:51.705Z,35.00
2023-03-15T23:30:20.653Z,12.20
2023-03-15T23:32:52.532Z,5.20
2023-03-15T23:35:22.775Z,2.40
2023-03-15T23:37:53.255Z,1.70
2023-03-15T23:40:22.670Z,1.20
2023-03-15T23:42:59.581Z,1.50
2023-03-15T23:45:30.291Z,2.40
2023-03-15T23:47:59.081Z,2.50
2023-03-15T23:50:29.074Z,2.60
2023-03-15T23:52:58.404Z,2.90
2023-03-15T23:55:27.190Z,4.50
2023-03-15T23:57:56.083Z,4.80
